createdAt,value
2018-01-22T00:01:52.388Z,6.47
2018-01-22T00:04:20.630Z,6.70
2018-01-22T00:06:48.911Z,5.97
2018-01-22T00:09:17.943Z,4.47
2018-01-22T00:11:46.226Z,6.40
2018-01-22T00:14:14.526Z,5.10
2018-01-22T00:16:42.885Z,6.20
2018-01-22T00:19:11.937Z,5.20
2018-01-22T00:21:40.201Z,5.33
2018-01-22T00:24:08.439Z,3.60
2018-01-22T00:26:36.690Z,5.83
2018-01-22T00:29:04.935Z,4.57
2018-01-22T00:31:33.191Z,6.87
2018-01-22T00:34:01.476Z,4.93
2018-01-22T00:36:29.746Z,5.97
2018-01-22T00:38:57.997Z,7.17
2018-01-22T00:41:27.031Z,5.47
2018-01-22T00:43:55.279Z,5.83
2018-01-22T00:46:23.538Z,5.47
2018-01-22T00:48:51.796Z,6.33
2018-01-22T00:51:20.035Z,8.90
2018-01-22T00:53:48.302Z,6.43
2018-01-22T00:56:16.572Z,5.63
2018-01-22T00:58:45.159Z,6.43
2018-01-22T01:01:13.528Z,6.27
2018-01-22T01:03:41.860Z,6.77
2018-01-22T01:06:10.113Z,6.57
2018-01-22T01:08:39.113Z,7.20
2018-01-22T01:11:08.096Z,7.23
2018-01-22T01:13:36.377Z,5.70
2018-01-22T01:16:04.595Z,6.63
2018-01-22T01:18:33.643Z,6.70
2018-01-22T01:21:01.891Z,5.93
2018-01-22T01:23:30.908Z,5.80
2018-01-22T01:25:59.153Z,6.87
2018-01-22T01:28:27.450Z,7.67
2018-01-22T01:30:55.761Z,6.03
2018-01-22T01:33:25.381Z,6.37
2018-01-22T01:35:54.406Z,5.13
2018-01-22T01:38:22.721Z,6.97
2018-01-22T01:40:50.971Z,6.27
2018-01-22T01:43:20.002Z,7.77
2018-01-22T01:45:50.252Z,5.43
2018-01-22T01:48:18.496Z,6.40
2018-01-22T01:50:47.494Z,5.17
2018-01-22T01:53:16.526Z,4.80
2018-01-22T01:55:44.766Z,5.37
2018-01-22T01:58:13.044Z,5.37
2018-01-22T02:00:41.332Z,6.37
2018-01-22T02:03:09.626Z,6.20
2018-01-22T02:05:38.714Z,6.67
2018-01-22T02:08:06.991Z,4.73
2018-01-22T02:10:35.241Z,6.20
2018-01-22T02:13:03.503Z,5.43
2018-01-22T02:15:31.747Z,5.50
2018-01-22T02:18:00.021Z,6.27
2018-01-22T02:20:29.045Z,4.97
2018-01-22T02:22:57.331Z,5.53
2018-01-22T02:25:25.630Z,4.60
2018-01-22T02:27:54.604Z,5.30
2018-01-22T02:30:23.677Z,5.27
2018-01-22T02:32:51.972Z,6.13
2018-01-22T02:35:20.315Z,5.23
2018-01-22T05:53:14.368Z,5.33
2018-01-22T05:55:42.663Z,5.13
2018-01-22T05:58:11.663Z,5.83
2018-01-22T06:00:39.915Z,6.20
2018-01-22T06:03:08.995Z,11.77
2018-01-22T06:05:37.256Z,6.53
2018-01-22T06:08:05.532Z,9.30
2018-01-22T06:10:33.778Z,8.10
2018-01-22T06:13:02.065Z,6.20
2018-01-22T06:15:30.404Z,7.27
2018-01-22T06:17:58.765Z,5.53
2018-01-22T06:20:28.284Z,6.60
2018-01-22T06:22:57.341Z,5.50
2018-01-22T06:25:25.818Z,6.97
2018-01-22T06:27:54.117Z,6.73
2018-01-22T06:30:22.391Z,8.37
2018-01-22T06:32:50.681Z,8.23
2018-01-22T06:35:18.950Z,6.57
2018-01-22T06:37:48.026Z,7.30
2018-01-22T06:40:16.274Z,7.10
2018-01-22T06:42:44.854Z,5.87
2018-01-22T06:45:13.270Z,7.47
2018-01-22T06:47:41.516Z,5.47
2018-01-22T06:50:09.788Z,6.07
2018-01-22T06:52:38.086Z,5.83
2018-01-22T06:55:07.156Z,6.17
2018-01-22T06:57:35.414Z,4.77
2018-01-22T07:00:03.683Z,7.17
2018-01-22T07:02:32.703Z,6.57
2018-01-22T07:05:01.030Z,6.53
2018-01-22T07:07:29.298Z,6.10
2018-01-22T07:09:57.559Z,5.53
2018-01-22T07:12:26.577Z,5.87
2018-01-22T07:14:54.844Z,6.77
2018-01-22T07:17:23.874Z,7.07
2018-01-22T07:19:52.168Z,6.97
2018-01-22T07:22:21.273Z,6.07
2018-01-22T07:24:49.550Z,5.37
2018-01-22T07:27:18.595Z,7.13
2018-01-22T07:29:46.861Z,6.33
2018-01-22T07:32:15.112Z,6.70
2018-01-22T07:34:43.402Z,8.50
2018-01-22T07:37:11.648Z,5.57
2018-01-22T07:39:39.939Z,6.33
2018-01-22T07:42:08.212Z,11.10
2018-01-22T07:44:37.245Z,7.30
2018-01-22T07:47:05.538Z,7.27
2018-01-22T07:49:33.805Z,8.63
2018-01-22T07:52:02.058Z,6.30
2018-01-22T07:54:31.082Z,7.57
2018-01-22T07:57:00.091Z,5.07
2018-01-22T07:59:28.364Z,5.20
2018-01-22T08:01:57.376Z,5.20
2018-01-22T08:04:26.412Z,5.03
2018-01-22T08:06:54.667Z,6.87
2018-01-22T08:09:22.937Z,7.33
2018-01-22T08:11:51.201Z,7.00
2018-01-22T08:14:19.507Z,9.57
2018-01-22T08:16:47.787Z,7.17
2018-01-22T08:19:16.029Z,6.97
2018-01-22T08:21:44.296Z,7.87
2018-01-22T08:24:13.294Z,8.17
2018-01-22T08:26:42.316Z,6.77
2018-01-22T08:29:11.332Z,8.40
2018-01-22T08:31:39.592Z,9.90
2018-01-22T08:34:07.854Z,8.20
2018-01-22T08:36:36.117Z,8.13
2018-01-22T08:39:04.388Z,9.83
2018-01-22T08:41:32.652Z,5.67
2018-01-22T08:44:01.679Z,6.07
2018-01-22T08:46:29.966Z,3.60
2018-01-22T08:48:58.999Z,2.67
2018-01-22T08:51:27.276Z,2.00
2018-01-22T08:53:55.525Z,2.07
2018-01-22T08:56:23.823Z,2.90
2018-01-22T08:58:52.075Z,2.97
2018-01-22T09:01:20.365Z,3.50
2018-01-22T09:03:48.626Z,4.17
2018-01-22T09:06:16.897Z,3.50
2018-01-22T09:08:45.177Z,2.87
2018-01-22T09:11:14.219Z,2.23
2018-01-22T09:13:42.484Z,2.20
2018-01-22T09:16:10.756Z,2.77
2018-01-22T09:18:39.776Z,2.07
2018-01-22T09:21:08.090Z,3.30
2018-01-22T09:23:36.372Z,1.90
2018-01-22T09:26:04.636Z,2.00
2018-01-22T09:28:33.672Z,2.80
2018-01-22T09:31:01.958Z,2.53
2018-01-22T09:33:30.211Z,2.67
2018-01-22T09:35:58.486Z,1.93
2018-01-22T09:38:26.750Z,3.13
2018-01-22T09:40:54.996Z,3.20
2018-01-22T09:43:23.257Z,2.20
2018-01-22T09:45:51.519Z,3.37
2018-01-22T09:48:19.801Z,4.17
2018-01-22T09:50:48.100Z,4.57
2018-01-22T09:53:16.342Z,3.77
2018-01-22T09:55:44.612Z,4.87
2018-01-22T09:58:13.652Z,6.17
2018-01-22T10:00:41.897Z,4.43
2018-01-22T10:03:10.164Z,4.10
2018-01-22T10:05:39.272Z,5.27
2018-01-22T10:08:07.555Z,2.40
2018-01-22T10:10:36.577Z,7.23
2018-01-22T10:13:04.844Z,6.63
2018-01-22T10:15:33.089Z,4.93
2018-01-22T10:18:02.110Z,4.33
2018-01-22T10:20:30.365Z,4.27
2018-01-22T10:22:58.616Z,4.47
2018-01-22T10:25:26.863Z,4.57
2018-01-22T10:27:55.889Z,4.30
2018-01-22T10:30:24.158Z,3.93
2018-01-22T10:32:53.218Z,6.60
2018-01-22T10:35:21.481Z,8.67
2018-01-22T10:37:49.786Z,7.80
2018-01-22T10:40:18.052Z,3.20
2018-01-22T10:42:46.322Z,2.23
2018-01-22T10:45:15.329Z,1.50
2018-01-22T10:47:44.358Z,1.13
2018-01-22T10:50:12.613Z,1.73
2018-01-22T10:52:41.637Z,1.23
2018-01-22T10:55:09.910Z,2.57
2018-01-22T10:57:38.944Z,1.20
2018-01-22T11:00:07.201Z,1.50
2018-01-22T11:02:35.494Z,1.53
2018-01-22T11:05:03.799Z,2.47
2018-01-22T11:07:32.048Z,1.60
2018-01-22T11:10:00.299Z,2.03
2018-01-22T11:12:28.559Z,3.70
2018-01-22T11:14:57.588Z,1.40
2018-01-22T11:17:25.856Z,2.30
2018-01-22T11:19:54.125Z,1.60
2018-01-22T11:22:22.420Z,2.03
2018-01-22T11:24:51.459Z,1.47
2018-01-22T11:27:19.771Z,1.90
2018-01-22T11:29:48.036Z,2.40
2018-01-22T11:32:16.300Z,2.97
2018-01-22T11:34:45.350Z,2.20
2018-01-22T11:37:13.613Z,2.73
2018-01-22T11:39:41.888Z,1.70
2018-01-22T11:42:11.656Z,2.83
2018-01-22T11:44:39.920Z,2.30
2018-01-22T11:47:08.228Z,4.90
2018-01-22T11:49:36.521Z,1.80
2018-01-22T11:52:04.807Z,1.77
2018-01-22T11:54:33.078Z,1.57
2018-01-22T11:57:01.343Z,1.80
2018-01-22T11:59:30.368Z,4.20
2018-01-22T12:01:58.629Z,2.47
2018-01-22T12:04:26.898Z,3.67
2018-01-22T12:06:55.915Z,2.40
2018-01-22T12:09:24.183Z,6.23
2018-01-22T12:11:52.480Z,3.13
2018-01-22T12:14:20.758Z,2.73
2018-01-22T12:16:49.020Z,2.30
2018-01-22T12:19:17.305Z,2.30
2018-01-22T12:21:45.564Z,2.20
2018-01-22T12:24:13.840Z,1.80
2018-01-22T12:26:42.094Z,2.20
2018-01-22T12:29:10.376Z,2.23
2018-01-22T12:31:38.620Z,2.00
2018-01-22T12:34:06.895Z,3.50
2018-01-22T12:36:35.164Z,2.17
2018-01-22T12:39:03.423Z,2.87
2018-01-22T12:41:31.683Z,3.33
2018-01-22T12:44:00.704Z,1.83
2018-01-22T12:46:28.971Z,1.43
2018-01-22T12:48:57.990Z,2.43
2018-01-22T12:51:27.107Z,2.00
2018-01-22T12:53:56.113Z,1.67
2018-01-22T12:56:24.395Z,1.77
2018-01-22T12:58:53.399Z,2.63
2018-01-22T13:01:21.711Z,2.33
2018-01-22T13:03:50.034Z,4.07
2018-01-22T13:06:18.475Z,2.23
2018-01-22T13:08:47.603Z,2.63
2018-01-22T13:11:16.125Z,6.73
2018-01-22T13:13:44.531Z,2.30
2018-01-22T13:16:13.037Z,3.30
2018-01-22T13:18:41.421Z,2.10
2018-01-22T13:21:09.755Z,7.10
2018-01-22T13:23:38.016Z,2.77
2018-01-22T13:26:07.063Z,2.87
2018-01-22T13:28:35.336Z,4.20
2018-01-22T13:31:03.616Z,1.93
2018-01-22T13:33:32.228Z,3.00
2018-01-22T13:36:01.243Z,2.43
2018-01-22T13:38:29.491Z,1.50
2018-01-22T13:41:16.431Z,1.40
2018-01-22T13:43:44.685Z,1.27
2018-01-22T13:46:12.945Z,1.73
2018-01-22T13:48:41.206Z,1.60
2018-01-22T13:51:10.258Z,1.30
2018-01-22T13:53:38.520Z,1.90
2018-01-22T13:56:06.795Z,1.80
2018-01-22T13:58:36.207Z,1.57
2018-01-22T14:01:05.240Z,2.20
2018-01-22T14:03:33.519Z,2.10
2018-01-22T14:06:01.812Z,1.90
2018-01-22T14:08:30.060Z,3.03
2018-01-22T14:10:58.336Z,3.13
2018-01-22T14:13:26.584Z,3.37
2018-01-22T14:15:54.837Z,5.13
2018-01-22T14:18:23.084Z,4.10
2018-01-22T14:20:51.417Z,3.10
2018-01-22T14:23:19.797Z,3.90
2018-01-22T14:25:48.168Z,3.43
2018-01-22T14:28:16.503Z,4.43
2018-01-22T14:30:45.568Z,2.30
2018-01-22T14:33:13.870Z,3.57
2018-01-22T14:35:42.161Z,3.10
2018-01-22T14:38:10.425Z,3.17
2018-01-22T14:40:38.713Z,2.07
2018-01-22T14:43:06.984Z,3.17
2018-01-22T14:45:35.271Z,2.80
2018-01-22T14:48:03.540Z,3.23
2018-01-22T14:50:32.578Z,2.93
2018-01-22T14:53:01.438Z,3.67
2018-01-22T14:55:30.123Z,4.27
2018-01-22T14:57:58.781Z,4.50
2018-01-22T15:00:31.304Z,3.43
2018-01-22T15:02:59.599Z,3.10
2018-01-22T15:05:28.667Z,3.40
2018-01-22T15:07:56.969Z,5.60
2018-01-22T15:10:25.274Z,9.03
2018-01-22T15:12:53.569Z,4.23
2018-01-22T15:15:22.119Z,7.90
2018-01-22T15:17:50.487Z,3.37
2018-01-22T15:20:19.684Z,4.70
2018-01-22T15:22:49.588Z,5.23
2018-01-22T15:25:18.708Z,5.07
2018-01-22T15:27:47.361Z,4.87
2018-01-22T15:30:16.091Z,5.47
2018-01-22T15:32:45.033Z,4.77
2018-01-22T15:35:13.638Z,7.93
2018-01-22T15:37:42.259Z,8.10
2018-01-22T15:40:11.329Z,4.27
2018-01-22T15:42:39.604Z,4.37
2018-01-22T15:45:08.145Z,4.03
2018-01-22T15:47:36.607Z,4.30
2018-01-22T15:50:05.653Z,6.93
2018-01-22T15:52:34.075Z,4.43
2018-01-22T15:55:02.442Z,4.13
2018-01-22T15:57:30.861Z,3.70
2018-01-22T15:59:59.412Z,4.10
2018-01-22T16:02:28.232Z,3.40
2018-01-22T16:04:57.482Z,3.67
2018-01-22T16:07:25.747Z,2.77
2018-01-22T16:09:54.126Z,4.90
2018-01-22T16:12:22.511Z,3.73
2018-01-22T16:14:50.959Z,3.67
2018-01-22T16:17:19.240Z,3.93
2018-01-22T16:19:47.784Z,3.30
2018-01-22T16:22:16.041Z,5.93
2018-01-22T16:24:45.252Z,4.00
2018-01-22T16:27:14.516Z,3.20
2018-01-22T16:29:43.008Z,6.27
2018-01-22T16:32:11.629Z,2.97
2018-01-22T16:34:40.739Z,3.17
2018-01-22T16:37:09.139Z,4.20
2018-01-22T16:39:37.522Z,3.00
2018-01-22T16:42:05.918Z,4.33
2018-01-22T16:44:34.683Z,4.27
2018-01-22T16:47:08.539Z,4.17
2018-01-22T16:49:37.136Z,2.83
2018-01-22T16:52:06.659Z,3.03
2018-01-22T16:54:36.294Z,5.23
2018-01-22T16:57:05.359Z,3.23
2018-01-22T16:59:34.177Z,3.43
2018-01-22T17:02:02.784Z,5.23
2018-01-22T17:04:31.114Z,8.17
2018-01-22T17:07:00.456Z,3.60
2018-01-22T17:09:28.801Z,4.07
2018-01-22T17:11:57.888Z,2.37
2018-01-22T17:14:28.079Z,3.53
2018-01-22T17:16:56.386Z,2.00
2018-01-22T17:19:25.015Z,1.53
2018-01-22T17:21:53.522Z,2.27
2018-01-22T17:24:21.878Z,2.70
2018-01-22T17:26:50.538Z,4.63
2018-01-22T17:29:19.128Z,2.47
2018-01-22T17:31:48.009Z,2.97
2018-01-22T17:34:16.753Z,2.73
2018-01-22T17:36:46.300Z,4.00
2018-01-22T17:39:14.558Z,5.20
2018-01-22T17:41:42.911Z,7.57
2018-01-22T17:44:12.485Z,12.57
2018-01-22T17:46:41.342Z,9.17
2018-01-22T17:49:09.744Z,7.73
2018-01-22T17:51:38.565Z,6.47
2018-01-22T17:54:07.942Z,4.50
2018-01-22T17:56:36.740Z,8.07
2018-01-22T17:59:06.626Z,6.20
2018-01-22T18:01:35.349Z,6.00
2018-01-22T18:04:03.690Z,5.17
2018-01-22T18:06:32.398Z,3.83
2018-01-22T18:09:00.986Z,5.17
2018-01-22T18:11:29.492Z,4.37
2018-01-22T18:13:57.870Z,4.33
2018-01-22T18:16:26.315Z,5.10
2018-01-22T18:18:54.918Z,8.33
2018-01-22T18:21:23.291Z,6.13
2018-01-22T18:23:51.676Z,4.90
2018-01-22T18:26:21.322Z,4.47
2018-01-22T18:28:49.961Z,4.80
2018-01-22T18:31:18.313Z,8.83
2018-01-22T18:33:46.943Z,8.37
2018-01-22T18:36:15.421Z,13.53
2018-01-22T18:38:44.938Z,16.57
2018-01-22T18:41:14.196Z,15.27
2018-01-22T18:43:42.877Z,22.17
2018-01-22T18:46:11.645Z,11.43
2018-01-22T18:48:41.033Z,10.57
2018-01-22T18:51:09.699Z,8.63
2018-01-22T18:53:38.628Z,8.63
2018-01-22T18:56:07.295Z,8.60
2018-01-22T18:58:35.584Z,11.87
2018-01-22T19:01:04.730Z,11.87
2018-01-22T19:03:33.516Z,10.73
2018-01-22T19:06:02.904Z,13.37
2018-01-22T19:08:31.799Z,13.13
2018-01-22T19:11:00.176Z,15.07
2018-01-22T19:13:28.584Z,11.27
2018-01-22T19:15:57.139Z,11.90
2018-01-22T19:18:25.530Z,14.30
2018-01-22T19:20:53.866Z,14.17
2018-01-22T19:23:22.189Z,12.30
2018-01-22T19:25:50.628Z,12.80
2018-01-22T19:28:19.857Z,15.13
2018-01-22T19:30:48.368Z,14.33
2018-01-22T19:33:17.067Z,11.60
2018-01-22T19:35:45.961Z,15.23
2018-01-22T19:38:14.663Z,15.93
2018-01-22T19:40:45.048Z,15.50
2018-01-22T19:43:14.826Z,15.77
2018-01-22T19:45:43.314Z,15.20
2018-01-22T19:48:11.891Z,18.90
2018-01-22T19:50:41.116Z,15.63
2018-01-22T19:53:10.622Z,12.93
2018-01-22T19:55:39.703Z,9.27
2018-01-22T19:58:08.793Z,15.53
2018-01-22T20:00:37.388Z,15.33
2018-01-22T20:03:05.970Z,14.83
2018-01-22T20:05:35.112Z,10.17
2018-01-22T20:08:03.588Z,14.23
2018-01-22T20:28:33.059Z,16.50
2018-01-22T20:31:03.241Z,13.57
2018-01-22T20:33:32.484Z,16.17
2018-01-22T20:36:00.822Z,14.90
2018-01-22T20:38:29.195Z,13.50
2018-01-22T20:40:57.494Z,15.47
2018-01-22T20:43:26.531Z,13.90
2018-01-22T20:45:54.846Z,10.43
2018-01-22T20:48:23.172Z,12.70
2018-01-22T20:50:51.474Z,13.90
2018-01-22T20:53:19.905Z,16.30
2018-01-22T20:55:48.267Z,14.17
2018-01-22T20:58:16.575Z,12.03
2018-01-22T21:00:44.846Z,10.97
2018-01-22T21:03:13.194Z,13.40
2018-01-22T21:05:41.527Z,11.20
2018-01-22T21:08:09.852Z,11.13
2018-01-22T21:10:38.117Z,12.17
2018-01-22T21:13:06.530Z,12.33
2018-01-22T21:15:34.823Z,12.20
2018-01-22T21:18:03.080Z,16.20
2018-01-22T21:20:31.406Z,14.73
2018-01-22T21:22:59.671Z,18.23
2018-01-22T21:25:27.983Z,11.87
2018-01-22T21:27:56.302Z,12.70
2018-01-22T21:30:24.611Z,13.87
2018-01-22T21:32:53.659Z,13.03
2018-01-22T21:35:21.920Z,16.20
2018-01-22T21:37:50.242Z,13.43
2018-01-22T21:40:18.656Z,13.17
2018-01-22T21:42:46.966Z,10.33
2018-01-22T21:45:16.011Z,11.87
2018-01-22T21:47:44.266Z,13.97
2018-01-22T21:50:13.336Z,10.80
2018-01-22T21:52:41.586Z,9.63
2018-01-22T21:55:10.068Z,11.90
2018-01-22T21:57:39.162Z,9.13
2018-01-22T22:00:08.206Z,11.57
2018-01-22T22:02:36.550Z,11.17
2018-01-22T22:05:05.646Z,10.17
2018-01-22T22:07:33.894Z,10.30
2018-01-22T22:10:02.160Z,9.00
2018-01-22T22:12:30.469Z,13.13
2018-01-22T22:14:58.744Z,9.70
2018-01-22T22:17:27.015Z,10.97
2018-01-22T22:19:56.059Z,6.57
2018-01-22T22:22:24.370Z,8.10
2018-01-22T22:24:52.644Z,12.00
2018-01-22T22:27:20.997Z,8.00
2018-01-22T22:29:49.333Z,10.63
2018-01-22T22:32:17.594Z,7.10
2018-01-22T22:34:45.868Z,9.63
2018-01-22T22:37:14.119Z,9.17
2018-01-22T22:39:42.400Z,8.10
2018-01-22T22:42:10.674Z,8.33
2018-01-22T22:44:38.964Z,9.93
2018-01-22T22:47:07.289Z,7.07
2018-01-22T22:49:35.598Z,8.30
2018-01-22T22:52:04.648Z,11.03
2018-01-22T22:54:32.921Z,13.57
2018-01-22T22:57:01.203Z,9.53
2018-01-22T22:59:29.456Z,10.83
2018-01-22T23:01:58.496Z,8.10
2018-01-22T23:04:26.744Z,5.63
2018-01-22T23:06:55.006Z,6.27
2018-01-22T23:09:23.259Z,6.83
2018-01-22T23:11:51.578Z,7.40
2018-01-22T23:14:19.890Z,10.20
2018-01-22T23:16:48.237Z,7.13
2018-01-22T23:19:16.510Z,13.40
2018-01-22T23:21:44.811Z,8.20
2018-01-22T23:24:13.067Z,11.03
2018-01-22T23:26:42.103Z,7.93
2018-01-22T23:29:10.359Z,10.97
2018-01-22T23:31:38.616Z,9.47
2018-01-22T23:34:06.894Z,8.70
2018-01-22T23:36:35.202Z,11.87
2018-01-22T23:39:03.452Z,6.90
2018-01-22T23:41:31.711Z,8.57
2018-01-22T23:44:00.731Z,10.17
2018-01-22T23:46:29.763Z,6.03
2018-01-22T23:48:58.017Z,8.20
2018-01-22T23:51:26.295Z,7.27
2018-01-22T23:53:54.552Z,11.27
2018-01-22T23:56:22.839Z,4.60
2018-01-22T23:58:51.139Z,7.03
